sensor_id;sensor_type;location;lat;lon;timestamp;pressure;altitude;pressure_sealevel;temperature;humidity
77263;BME280;66373;52.334;4.806;2023-04-07T00:01:10;101359.88;;;17.26;50.49
77263;BME280;66373;52.334;4.806;2023-04-07T00:03:38;101385.69;;;17.44;50.64
77263;BME280;66373;52.334;4.806;2023-04-07T00:06:07;101384.03;;;17.39;50.49
77263;BME280;66373;52.334;4.806;2023-04-07T00:08:35;101394.38;;;17.42;50.45
77263;BME280;66373;52.334;4.806;2023-04-07T00:11:02;101383.09;;;17.43;50.39
77263;BME280;66373;52.334;4.806;2023-04-07T00:13:29;101364.16;;;17.28;50.38
77263;BME280;66373;52.334;4.806;2023-04-07T00:15:57;101386.63;;;17.39;50.38
77263;BME280;66373;52.334;4.806;2023-04-07T00:18:25;101396.09;;;17.41;50.20
77263;BME280;66373;52.334;4.806;2023-04-07T00:20:52;101397.88;;;17.41;50.12
77263;BME280;66373;52.334;4.806;2023-04-07T00:23:21;101402.16;;;17.42;50.08
77263;BME280;66373;52.334;4.806;2023-04-07T00:25:48;101409.16;;;17.40;50.04
77263;BME280;66373;52.334;4.806;2023-04-07T00:28:16;101401.34;;;17.40;50.16
77263;BME280;66373;52.334;4.806;2023-04-07T00:30:44;101398.75;;;17.40;50.03
77263;BME280;66373;52.334;4.806;2023-04-07T00:33:11;101410.88;;;17.39;50.04
77263;BME280;66373;52.334;4.806;2023-04-07T00:35:39;101391.91;;;17.29;50.04
77263;BME280;66373;52.334;4.806;2023-04-07T00:38:06;101367.81;;;17.09;49.76
77263;BME280;66373;52.334;4.806;2023-04-07T00:40:35;101388.47;;;17.24;49.88
77263;BME280;66373;52.334;4.806;2023-04-07T00:43:02;101413.50;;;17.38;50.02
77263;BME280;66373;52.334;4.806;2023-04-07T00:45:30;101402.25;;;17.36;49.92
77263;BME280;66373;52.334;4.806;2023-04-07T00:47:59;101397.13;;;17.28;49.82
77263;BME280;66373;52.334;4.806;2023-04-07T00:50:26;101374.66;;;17.19;49.93
77263;BME280;66373;52.334;4.806;2023-04-07T00:52:54;101402.25;;;17.36;49.86
77263;BME280;66373;52.334;4.806;2023-04-07T00:55:22;101403.97;;;17.37;49.90
77263;BME280;66373;52.334;4.806;2023-04-07T00:57:51;101411.78;;;17.37;49.74
77263;BME280;66373;52.334;4.806;2023-04-07T01:00:19;101407.44;;;17.36;49.79
77263;BME280;66373;52.334;4.806;2023-04-07T01:02:52;101393.63;;;17.30;49.87
77263;BME280;66373;52.334;4.806;2023-04-07T01:05:27;101383.28;;;17.21;49.81
77263;BME280;66373;52.334;4.806;2023-04-07T01:08:02;101408.31;;;17.35;49.84
77263;BME280;66373;52.334;4.806;2023-04-07T01:10:41;101387.63;;;17.22;49.65
77263;BME280;66373;52.334;4.806;2023-04-07T01:13:22;101350.56;;;17.02;49.67
77263;BME280;66373;52.334;4.806;2023-04-07T01:15:58;101410.06;;;17.34;49.69
77263;BME280;66373;52.334;4.806;2023-04-07T01:18:31;101399.72;;;17.26;49.73
77263;BME280;66373;52.334;4.806;2023-04-07T01:21:02;101332.53;;;16.85;49.69
77263;BME280;66373;52.334;4.806;2023-04-07T01:23:48;101416.16;;;17.33;49.70
77263;BME280;66373;52.334;4.806;2023-04-07T01:26:23;101379.88;;;17.16;49.87
77263;BME280;66373;52.334;4.806;2023-04-07T01:29:06;101416.16;;;17.32;49.39
77263;BME280;66373;52.334;4.806;2023-04-07T01:31:40;101416.16;;;17.32;49.68
77263;BME280;66373;52.334;4.806;2023-04-07T01:34:09;101419.63;;;17.30;49.64
77263;BME280;66373;52.334;4.806;2023-04-07T01:36:37;101419.63;;;17.30;49.60
77263;BME280;66373;52.334;4.806;2023-04-07T01:39:05;101417.91;;;17.29;49.65
77263;BME280;66373;52.334;4.806;2023-04-07T01:41:34;101412.69;;;17.29;49.65
77263;BME280;66373;52.334;4.806;2023-04-07T01:44:03;101409.22;;;17.30;49.41
77263;BME280;66373;52.334;4.806;2023-04-07T01:46:32;101417.91;;;17.29;49.67
77263;BME280;66373;52.334;4.806;2023-04-07T01:49:02;101412.72;;;17.28;49.60
77263;BME280;66373;52.334;4.806;2023-04-07T01:51:30;101416.19;;;17.28;49.56
77263;BME280;66373;52.334;4.806;2023-04-07T01:54:00;101401.50;;;17.21;49.57
77263;BME280;66373;52.334;4.806;2023-04-07T01:56:28;101416.22;;;17.24;49.56
77263;BME280;66373;52.334;4.806;2023-04-07T01:58:57;101421.38;;;17.28;49.52
77263;BME280;66373;52.334;4.806;2023-04-07T02:01:25;101414.44;;;17.27;49.56
77263;BME280;66373;52.334;4.806;2023-04-07T02:03:55;101418.78;;;17.27;49.61
77263;BME280;66373;52.334;4.806;2023-04-07T02:06:26;101419.66;;;17.27;49.50
77263;BME280;66373;52.334;4.806;2023-04-07T02:09:00;101415.31;;;17.26;49.50
77263;BME280;66373;52.334;4.806;2023-04-07T02:11:31;101417.06;;;17.26;49.47
77263;BME280;66373;52.334;4.806;2023-04-07T02:14:03;101416.19;;;17.25;49.47
77263;BME280;66373;52.334;4.806;2023-04-07T02:16:42;101399.78;;;17.17;49.57
77263;BME280;66373;52.334;4.806;2023-04-07T02:19:10;101416.19;;;17.25;49.35
77263;BME280;66373;52.334;4.806;2023-04-07T02:21:39;101423.13;;;17.25;49.40
77263;BME280;66373;52.334;4.806;2023-04-07T02:24:07;101420.56;;;17.23;49.36
77263;BME280;66373;52.334;4.806;2023-04-07T02:26:37;101388.69;;;17.00;49.39
77263;BME280;66373;52.334;4.806;2023-04-07T02:29:04;101427.47;;;17.23;49.33
77263;BME280;66373;52.334;4.806;2023-04-07T02:31:32;101425.75;;;17.23;49.38
77263;BME280;66373;52.334;4.806;2023-04-07T02:34:00;101419.69;;;17.23;49.43
77263;BME280;66373;52.334;4.806;2023-04-07T02:36:27;101413.63;;;17.22;49.47
77263;BME280;66373;52.334;4.806;2023-04-07T02:38:57;101419.69;;;17.21;49.43
77263;BME280;66373;52.334;4.806;2023-04-07T02:41:25;101402.50;;;17.08;49.43
77263;BME280;66373;52.334;4.806;2023-04-07T02:43:52;101419.69;;;17.21;49.29
77263;BME280;66373;52.334;4.806;2023-04-07T02:46:19;101424.03;;;17.21;49.43
77263;BME280;66373;52.334;4.806;2023-04-07T02:48:47;101414.59;;;17.14;49.36
77263;BME280;66373;52.334;4.806;2023-04-07T02:51:14;101430.09;;;17.20;49.45
77263;BME280;66373;52.334;4.806;2023-04-07T02:53:41;101424.03;;;17.19;49.47
77263;BME280;66373;52.334;4.806;2023-04-07T02:56:11;101427.50;;;17.20;49.36
77263;BME280;66373;52.334;4.806;2023-04-07T02:58:38;101423.19;;;17.17;49.44
77263;BME280;66373;52.334;4.806;2023-04-07T03:01:06;101414.63;;;17.06;49.22
77263;BME280;66373;52.334;4.806;2023-04-07T03:03:34;101426.66;;;17.19;49.33
77263;BME280;66373;52.334;4.806;2023-04-07T03:06:10;101430.13;;;17.18;49.38
77263;BME280;66373;52.334;4.806;2023-04-07T03:08:47;101431.84;;;17.19;49.43
77263;BME280;66373;52.334;4.806;2023-04-07T03:11:16;101428.44;;;17.14;49.66
77263;BME280;66373;52.334;4.806;2023-04-07T03:13:44;101427.50;;;17.18;49.27
77263;BME280;66373;52.334;4.806;2023-04-07T03:16:14;101427.53;;;17.17;49.33
77263;BME280;66373;52.334;4.806;2023-04-07T03:18:54;101428.38;;;17.17;49.39
77263;BME280;66373;52.334;4.806;2023-04-07T03:21:22;101422.31;;;17.17;49.38
77263;BME280;66373;52.334;4.806;2023-04-07T03:23:49;101427.59;;;17.12;49.36
77263;BME280;66373;52.334;4.806;2023-04-07T03:26:19;101426.66;;;17.16;49.30
77263;BME280;66373;52.334;4.806;2023-04-07T03:28:46;101415.50;;;17.07;49.30
77263;BME280;66373;52.334;4.806;2023-04-07T03:31:15;101422.34;;;17.15;49.39
77263;BME280;66373;52.334;4.806;2023-04-07T03:33:43;101424.09;;;17.15;49.36
77263;BME280;66373;52.334;4.806;2023-04-07T03:36:11;101414.63;;;17.06;49.55
77263;BME280;66373;52.334;4.806;2023-04-07T03:38:39;101413.75;;;17.10;49.29
77263;BME280;66373;52.334;4.806;2023-04-07T03:41:06;101426.72;;;17.13;49.36
77263;BME280;66373;52.334;4.806;2023-04-07T03:43:35;101426.72;;;17.13;49.30
77263;BME280;66373;52.334;4.806;2023-04-07T03:46:03;101415.47;;;17.13;49.38
77263;BME280;66373;52.334;4.806;2023-04-07T03:48:31;101413.75;;;17.09;49.21
77263;BME280;66373;52.334;4.806;2023-04-07T03:51:05;101397.38;;;16.96;49.21
77263;BME280;66373;52.334;4.806;2023-04-07T03:53:33;101411.19;;;17.04;49.15
77263;BME280;66373;52.334;4.806;2023-04-07T03:56:11;101427.63;;;17.08;49.16
77263;BME280;66373;52.334;4.806;2023-04-07T03:58:47;101434.53;;;17.12;49.14
77263;BME280;66373;52.334;4.806;2023-04-07T04:01:21;101431.94;;;17.10;49.25
77263;BME280;66373;52.334;4.806;2023-04-07T04:03:50;101434.53;;;17.12;49.35
77263;BME280;66373;52.334;4.806;2023-04-07T04:06:22;101444.06;;;17.11;49.18
77263;BME280;66373;52.334;4.806;2023-04-07T04:08:56;101438.00;;;17.11;49.30
77263;BME280;66373;52.334;4.806;2023-04-07T04:11:25;101426.78;;;17.04;49.27
77263;BME280;66373;52.334;4.806;2023-04-07T04:13:59;101435.44;;;17.06;49.25
77263;BME280;66373;52.334;4.806;2023-04-07T04:16:26;101363.84;;;16.59;49.26
77263;BME280;66373;52.334;4.806;2023-04-07T04:18:57;101440.59;;;17.09;49.24
77263;BME280;66373;52.334;4.806;2023-04-07T04:21:27;101438.91;;;17.05;49.21
77263;BME280;66373;52.334;4.806;2023-04-07T04:23:56;101444.94;;;17.09;49.30
77263;BME280;66373;52.334;4.806;2023-04-07T04:26:27;101444.09;;;17.08;49.15
77263;BME280;66373;52.334;4.806;2023-04-07T04:29:01;101449.28;;;17.08;49.34
77263;BME280;66373;52.334;4.806;2023-04-07T04:31:29;101445.81;;;17.08;49.17
77263;BME280;66373;52.334;4.806;2023-04-07T04:33:57;101448.41;;;17.08;49.15
77263;BME280;66373;52.334;4.806;2023-04-07T04:36:24;101451.03;;;17.06;49.22
77263;BME280;66373;52.334;4.806;2023-04-07T04:38:57;101437.19;;;17.01;49.24
77263;BME280;66373;52.334;4.806;2023-04-07T04:41:24;101450.16;;;17.06;49.10
77263;BME280;66373;52.334;4.806;2023-04-07T04:43:52;101444.09;;;17.05;49.21
77263;BME280;66373;52.334;4.806;2023-04-07T04:46:24;101445.88;;;17.00;48.92
77263;BME280;66373;52.334;4.806;2023-04-07T04:48:51;101448.44;;;17.05;49.16
77263;BME280;66373;52.334;4.806;2023-04-07T04:51:21;101457.97;;;17.04;49.19
77263;BME280;66373;52.334;4.806;2023-04-07T04:53:53;101440.69;;;16.94;49.06
77263;BME280;66373;52.334;4.806;2023-04-07T04:56:23;101436.44;;;16.87;49.15
77263;BME280;66373;52.334;4.806;2023-04-07T04:58:51;101457.97;;;17.04;49.30
77263;BME280;66373;52.334;4.806;2023-04-07T05:01:30;101465.75;;;17.04;49.12
77263;BME280;66373;52.334;4.806;2023-04-07T05:04:03;101465.78;;;17.03;49.27
77263;BME280;66373;52.334;4.806;2023-04-07T05:06:31;101439.91;;;16.86;49.16
77263;BME280;66373;52.334;4.806;2023-04-07T05:09:05;101471.84;;;17.03;49.17
77263;BME280;66373;52.334;4.806;2023-04-07T05:11:40;101472.72;;;17.02;49.23
77263;BME280;66373;52.334;4.806;2023-04-07T05:14:08;101475.31;;;17.02;49.20
77263;BME280;66373;52.334;4.806;2023-04-07T05:16:42;101480.50;;;17.02;49.18
77263;BME280;66373;52.334;4.806;2023-04-07T05:19:15;101476.19;;;17.01;49.03
77263;BME280;66373;52.334;4.806;2023-04-07T05:21:43;101477.91;;;17.01;49.12
77263;BME280;66373;52.334;4.806;2023-04-07T05:24:11;101466.75;;;16.88;49.22
77263;BME280;66373;52.334;4.806;2023-04-07T05:26:38;101488.31;;;17.01;49.11
77263;BME280;66373;52.334;4.806;2023-04-07T05:29:07;101480.56;;;16.93;49.33
77263;BME280;66373;52.334;4.806;2023-04-07T05:31:35;101484.84;;;17.00;49.09
77263;BME280;66373;52.334;4.806;2023-04-07T05:34:08;101487.47;;;16.94;49.08
77263;BME280;66373;52.334;4.806;2023-04-07T05:36:42;101463.31;;;16.83;49.02
77263;BME280;66373;52.334;4.806;2023-04-07T05:39:10;101488.31;;;16.99;49.16
77263;BME280;66373;52.334;4.806;2023-04-07T05:41:38;101493.53;;;16.99;49.17
77263;BME280;66373;52.334;4.806;2023-04-07T05:44:06;101481.47;;;16.89;49.26
77263;BME280;66373;52.334;4.806;2023-04-07T05:46:38;101478.03;;;16.87;49.13
77263;BME280;66373;52.334;4.806;2023-04-07T05:49:06;101489.22;;;16.92;49.17
77263;BME280;66373;52.334;4.806;2023-04-07T05:51:35;101497.88;;;16.97;49.12
77263;BME280;66373;52.334;4.806;2023-04-07T05:54:08;101503.94;;;16.96;49.07
77263;BME280;66373;52.334;4.806;2023-04-07T05:56:36;101411.56;;;16.40;49.22
77263;BME280;66373;52.334;4.806;2023-04-07T05:59:05;101503.06;;;16.97;48.93
77263;BME280;66373;52.334;4.806;2023-04-07T06:01:32;101504.78;;;16.96;49.05
77263;BME280;66373;52.334;4.806;2023-04-07T06:04:00;101504.81;;;16.95;49.20
77263;BME280;66373;52.334;4.806;2023-04-07T06:06:28;101517.78;;;16.95;49.09
77263;BME280;66373;52.334;4.806;2023-04-07T06:08:57;101511.75;;;16.90;49.02
77263;BME280;66373;52.334;4.806;2023-04-07T06:11:26;101514.34;;;16.91;49.13
77263;BME280;66373;52.334;4.806;2023-04-07T06:13:53;101528.19;;;16.95;49.13
77263;BME280;66373;52.334;4.806;2023-04-07T06:16:20;101524.72;;;16.94;49.25
77263;BME280;66373;52.334;4.806;2023-04-07T06:18:48;101510.94;;;16.86;49.04
77263;BME280;66373;52.334;4.806;2023-04-07T06:21:16;101529.06;;;16.94;49.09
77263;BME280;66373;52.334;4.806;2023-04-07T06:23:43;101529.06;;;16.94;49.10
77263;BME280;66373;52.334;4.806;2023-04-07T06:26:13;101515.28;;;16.84;49.18
77263;BME280;66373;52.334;4.806;2023-04-07T06:28:40;101532.53;;;16.93;49.08
77263;BME280;66373;52.334;4.806;2023-04-07T06:31:08;101532.59;;;16.87;49.08
77263;BME280;66373;52.334;4.806;2023-04-07T06:33:37;101540.31;;;16.93;49.13
77263;BME280;66373;52.334;4.806;2023-04-07T06:36:05;101536.03;;;16.89;49.07
77263;BME280;66373;52.334;4.806;2023-04-07T06:38:35;101470.38;;;16.50;49.21
77263;BME280;66373;52.334;4.806;2023-04-07T06:41:02;101541.19;;;16.92;49.01
77263;BME280;66373;52.334;4.806;2023-04-07T06:43:31;101430.69;;;16.27;49.16
77263;BME280;66373;52.334;4.806;2023-04-07T06:46:03;101555.06;;;16.91;49.04
77263;BME280;66373;52.334;4.806;2023-04-07T06:48:30;101552.47;;;16.92;48.92
77263;BME280;66373;52.334;4.806;2023-04-07T06:50:57;101556.78;;;16.92;49.13
77263;BME280;66373;52.334;4.806;2023-04-07T06:53:25;101562.84;;;16.91;48.91
77263;BME280;66373;52.334;4.806;2023-04-07T06:56:02;101565.44;;;16.91;49.11
77263;BME280;66373;52.334;4.806;2023-04-07T06:58:31;101571.50;;;16.91;49.19
77263;BME280;66373;52.334;4.806;2023-04-07T07:00:59;101563.72;;;16.90;49.04
77263;BME280;66373;52.334;4.806;2023-04-07T07:03:26;101569.78;;;16.90;49.04
77263;BME280;66373;52.334;4.806;2023-04-07T07:05:54;101551.66;;;16.83;49.02
77263;BME280;66373;52.334;4.806;2023-04-07T07:08:22;101568.94;;;16.90;49.11
77263;BME280;66373;52.334;4.806;2023-04-07T07:10:52;101568.94;;;16.90;49.11
77263;BME280;66373;52.334;4.806;2023-04-07T07:13:22;101567.22;;;16.89;49.04
77263;BME280;66373;52.334;4.806;2023-04-07T07:15:57;101562.91;;;16.86;49.13
77263;BME280;66373;52.334;4.806;2023-04-07T07:18:24;101577.59;;;16.90;49.05
77263;BME280;66373;52.334;4.806;2023-04-07T07:20:51;101569.81;;;16.89;49.01
77263;BME280;66373;52.334;4.806;2023-04-07T07:23:18;101583.66;;;16.89;49.06
77263;BME280;66373;52.334;4.806;2023-04-07T07:25:46;101575.03;;;16.89;49.01
77263;BME280;66373;52.334;4.806;2023-04-07T07:28:13;101581.06;;;16.89;49.15
77263;BME280;66373;52.334;4.806;2023-04-07T07:30:47;101585.41;;;16.87;49.15
77263;BME280;66373;52.334;4.806;2023-04-07T07:33:16;101518.00;;;16.51;49.22
77263;BME280;66373;52.334;4.806;2023-04-07T07:35:44;101590.63;;;16.89;49.06
77263;BME280;66373;52.334;4.806;2023-04-07T07:38:11;101594.03;;;16.89;49.15
77263;BME280;66373;52.334;4.806;2023-04-07T07:40:39;101587.16;;;16.88;48.98
77263;BME280;66373;52.334;4.806;2023-04-07T07:43:06;101591.44;;;16.89;49.02
77263;BME280;66373;52.334;4.806;2023-04-07T07:45:37;101593.22;;;16.89;49.16
77263;BME280;66373;52.334;4.806;2023-04-07T07:48:06;101584.59;;;16.78;49.16
77263;BME280;66373;52.334;4.806;2023-04-07T07:50:37;101607.03;;;16.89;49.01
77263;BME280;66373;52.334;4.806;2023-04-07T07:53:04;101603.59;;;16.89;49.02
77263;BME280;66373;52.334;4.806;2023-04-07T07:55:35;101543.09;;;16.47;48.98
77263;BME280;66373;52.334;4.806;2023-04-07T07:58:07;101614.00;;;16.89;48.87
77263;BME280;66373;52.334;4.806;2023-04-07T08:00:38;101613.13;;;16.88;49.15
77263;BME280;66373;52.334;4.806;2023-04-07T08:03:05;101588.06;;;16.75;49.17
77263;BME280;66373;52.334;4.806;2023-04-07T08:05:33;101605.34;;;16.84;49.12
77263;BME280;66373;52.334;4.806;2023-04-07T08:08:02;101622.66;;;16.88;48.98
77263;BME280;66373;52.334;4.806;2023-04-07T08:10:29;101630.47;;;16.88;49.04
77263;BME280;66373;52.334;4.806;2023-04-07T08:12:57;101614.91;;;16.79;49.17
77263;BME280;66373;52.334;4.806;2023-04-07T08:15:24;101628.72;;;16.87;49.07
77263;BME280;66373;52.334;4.806;2023-04-07T08:17:52;101615.75;;;16.81;48.90
77263;BME280;66373;52.334;4.806;2023-04-07T08:20:19;101633.06;;;16.88;49.05
77263;BME280;66373;52.334;4.806;2023-04-07T08:22:47;101591.53;;;16.65;48.95
77263;BME280;66373;52.334;4.806;2023-04-07T08:25:16;101634.78;;;16.87;49.05
77263;BME280;66373;52.334;4.806;2023-04-07T08:27:44;101622.69;;;16.79;49.04
77263;BME280;66373;52.334;4.806;2023-04-07T08:30:11;101633.94;;;16.87;49.08
77263;BME280;66373;52.334;4.806;2023-04-07T08:32:41;101642.59;;;16.87;49.02
77263;BME280;66373;52.334;4.806;2023-04-07T08:35:10;101636.53;;;16.87;49.08
77263;BME280;66373;52.334;4.806;2023-04-07T08:37:38;101641.72;;;16.87;48.98
77263;BME280;66373;52.334;4.806;2023-04-07T08:40:06;101598.50;;;16.57;49.14
77263;BME280;66373;52.334;4.806;2023-04-07T08:42:39;101646.94;;;16.87;48.94
77263;BME280;66373;52.334;4.806;2023-04-07T08:45:07;101627.88;;;16.79;48.94
77263;BME280;66373;52.334;4.806;2023-04-07T08:47:35;101641.72;;;16.87;49.14
77263;BME280;66373;52.334;4.806;2023-04-07T08:50:05;101650.38;;;16.87;49.00
77263;BME280;66373;52.334;4.806;2023-04-07T08:52:38;101633.97;;;16.72;48.93
77263;BME280;66373;52.334;4.806;2023-04-07T08:55:08;101659.91;;;16.87;49.04
77263;BME280;66373;52.334;4.806;2023-04-07T08:57:37;101652.13;;;16.81;48.95
77263;BME280;66373;52.334;4.806;2023-04-07T09:00:04;101660.78;;;16.86;48.94
77263;BME280;66373;52.334;4.806;2023-04-07T09:02:32;101646.06;;;16.76;48.96
77263;BME280;66373;52.334;4.806;2023-04-07T09:05:00;101668.56;;;16.87;49.00
77263;BME280;66373;52.334;4.806;2023-04-07T09:07:30;101632.25;;;16.68;49.00
77263;BME280;66373;52.334;4.806;2023-04-07T09:09:57;101660.78;;;16.83;49.09
77263;BME280;66373;52.334;4.806;2023-04-07T09:12:24;101660.78;;;16.80;49.20
77263;BME280;66373;52.334;4.806;2023-04-07T09:14:53;101666.84;;;16.82;49.05
77263;BME280;66373;52.334;4.806;2023-04-07T09:17:20;101676.38;;;16.87;48.95
77263;BME280;66373;52.334;4.806;2023-04-07T09:19:47;101668.59;;;16.81;49.11
77263;BME280;66373;52.334;4.806;2023-04-07T09:22:14;101669.44;;;16.88;48.99
77263;BME280;66373;52.334;4.806;2023-04-07T09:24:41;101672.91;;;16.87;49.12
77263;BME280;66373;52.334;4.806;2023-04-07T09:27:12;101679.84;;;16.88;49.12
77263;BME280;66373;52.334;4.806;2023-04-07T09:29:41;101667.72;;;16.82;48.80
77263;BME280;66373;52.334;4.806;2023-04-07T09:32:10;101681.56;;;16.87;48.84
77263;BME280;66373;52.334;4.806;2023-04-07T09:34:38;101683.31;;;16.87;49.10
77263;BME280;66373;52.334;4.806;2023-04-07T09:37:07;101644.38;;;16.66;48.96
77263;BME280;66373;52.334;4.806;2023-04-07T09:39:48;101679.84;;;16.88;49.03
77263;BME280;66373;52.334;4.806;2023-04-07T09:42:15;101685.03;;;16.88;48.93
77263;BME280;66373;52.334;4.806;2023-04-07T09:44:43;101685.91;;;16.88;48.96
77263;BME280;66373;52.334;4.806;2023-04-07T09:47:11;101690.22;;;16.88;48.94
77263;BME280;66373;52.334;4.806;2023-04-07T09:49:51;101671.19;;;16.80;48.91
77263;BME280;66373;52.334;4.806;2023-04-07T09:52:18;101685.03;;;16.88;48.96
77263;BME280;66373;52.334;4.806;2023-04-07T09:54:46;101679.84;;;16.88;48.96
77263;BME280;66373;52.334;4.806;2023-04-07T09:57:14;101689.38;;;16.89;48.89
77263;BME280;66373;52.334;4.806;2023-04-07T09:59:43;101667.72;;;16.76;49.10
77263;BME280;66373;52.334;4.806;2023-04-07T10:02:13;101690.22;;;16.88;49.11
77263;BME280;66373;52.334;4.806;2023-04-07T10:04:40;101690.19;;;16.89;48.97
77263;BME280;66373;52.334;4.806;2023-04-07T10:07:08;101698.00;;;16.89;48.92
77263;BME280;66373;52.334;4.806;2023-04-07T10:09:36;101674.66;;;16.79;49.07
77263;BME280;66373;52.334;4.806;2023-04-07T10:12:04;101692.78;;;16.89;48.90
77263;BME280;66373;52.334;4.806;2023-04-07T10:14:34;101683.31;;;16.87;49.02
77263;BME280;66373;52.334;4.806;2023-04-07T10:17:02;101698.84;;;16.90;48.86
77263;BME280;66373;52.334;4.806;2023-04-07T10:19:33;101699.72;;;16.90;49.01
77263;BME280;66373;52.334;4.806;2023-04-07T10:22:03;101704.06;;;16.90;49.10
77263;BME280;66373;52.334;4.806;2023-04-07T10:24:42;101704.91;;;16.92;49.29
77263;BME280;66373;52.334;4.806;2023-04-07T10:27:15;101703.19;;;16.91;49.10
77263;BME280;66373;52.334;4.806;2023-04-07T10:29:45;101699.75;;;16.87;49.13
77263;BME280;66373;52.334;4.806;2023-04-07T10:32:15;101693.69;;;16.84;49.17
77263;BME280;66373;52.334;4.806;2023-04-07T10:34:57;101709.25;;;16.93;49.09
77263;BME280;66373;52.334;4.806;2023-04-07T10:37:26;101710.97;;;16.92;49.09
77263;BME280;66373;52.334;4.806;2023-04-07T10:40:26;101710.13;;;16.93;49.16
77263;BME280;66373;52.334;4.806;2023-04-07T10:42:54;101710.97;;;16.94;49.21
77263;BME280;66373;52.334;4.806;2023-04-07T10:45:56;101704.06;;;16.93;49.03
77263;BME280;66373;52.334;4.806;2023-04-07T10:48:27;101712.72;;;16.92;48.99
77263;BME280;66373;52.334;4.806;2023-04-07T10:51:23;101715.31;;;16.92;49.08
77263;BME280;66373;52.334;4.806;2023-04-07T10:54:17;101719.66;;;16.93;49.12
77263;BME280;66373;52.334;4.806;2023-04-07T10:57:18;101730.03;;;16.93;49.09
77263;BME280;66373;52.334;4.806;2023-04-07T11:00:13;101715.31;;;16.93;49.01
77263;BME280;66373;52.334;4.806;2023-04-07T11:02:41;101708.44;;;16.83;49.03
77263;BME280;66373;52.334;4.806;2023-04-07T11:05:19;101726.56;;;16.94;49.16
77263;BME280;66373;52.334;4.806;2023-04-07T11:07:51;101717.94;;;16.89;49.02
77263;BME280;66373;52.334;4.806;2023-04-07T11:10:20;101693.72;;;16.75;48.97
77263;BME280;66373;52.334;4.806;2023-04-07T11:12:58;101709.28;;;16.81;49.12
77263;BME280;66373;52.334;4.806;2023-04-07T11:15:26;101735.25;;;16.93;49.12
77263;BME280;66373;52.334;4.806;2023-04-07T11:18:12;101730.03;;;16.93;49.05
77263;BME280;66373;52.334;4.806;2023-04-07T11:20:48;101730.03;;;16.93;48.99
77263;BME280;66373;52.334;4.806;2023-04-07T11:23:19;101728.34;;;16.86;49.05
77263;BME280;66373;52.334;4.806;2023-04-07T11:25:49;101742.16;;;16.94;49.04
77263;BME280;66373;52.334;4.806;2023-04-07T11:28:19;101738.69;;;16.93;49.07
77263;BME280;66373;52.334;4.806;2023-04-07T11:30:48;101730.09;;;16.87;48.97
77263;BME280;66373;52.334;4.806;2023-04-07T11:33:19;101739.56;;;16.94;48.89
77263;BME280;66373;52.334;4.806;2023-04-07T11:35:52;101743.91;;;16.95;49.08
77263;BME280;66373;52.334;4.806;2023-04-07T11:38:23;101743.03;;;16.94;48.98
77263;BME280;66373;52.334;4.806;2023-04-07T11:40:51;101695.44;;;16.63;49.11
77263;BME280;66373;52.334;4.806;2023-04-07T11:43:19;101750.84;;;16.96;49.07
77263;BME280;66373;52.334;4.806;2023-04-07T11:46:03;101754.28;;;16.95;49.02
77263;BME280;66373;52.334;4.806;2023-04-07T11:48:31;101724.03;;;16.76;48.97
77263;BME280;66373;52.334;4.806;2023-04-07T11:50:59;101738.75;;;16.86;49.08
77263;BME280;66373;52.334;4.806;2023-04-07T11:53:30;101754.28;;;16.95;48.79
77263;BME280;66373;52.334;4.806;2023-04-07T11:56:02;101727.47;;;16.81;49.08
77263;BME280;66373;52.334;4.806;2023-04-07T11:58:32;101724.88;;;16.75;49.10
77263;BME280;66373;52.334;4.806;2023-04-07T12:01:02;101756.03;;;16.96;49.06
77263;BME280;66373;52.334;4.806;2023-04-07T12:03:31;101759.50;;;16.95;49.00
77263;BME280;66373;52.334;4.806;2023-04-07T12:05:58;101744.81;;;16.86;49.04
77263;BME280;66373;52.334;4.806;2023-04-07T12:08:41;101763.81;;;16.94;49.01
77263;BME280;66373;52.334;4.806;2023-04-07T12:11:09;101769.88;;;16.95;49.09
77263;BME280;66373;52.334;4.806;2023-04-07T12:13:37;101767.28;;;16.90;48.94
77263;BME280;66373;52.334;4.806;2023-04-07T12:16:05;101726.63;;;16.70;49.15
77263;BME280;66373;52.334;4.806;2023-04-07T12:18:32;101769.03;;;16.94;49.02
77263;BME280;66373;52.334;4.806;2023-04-07T12:21:00;101780.28;;;16.98;49.02
77263;BME280;66373;52.334;4.806;2023-04-07T12:23:27;101704.13;;;16.47;48.88
77263;BME280;66373;52.334;4.806;2023-04-07T12:25:56;101778.56;;;16.97;48.94
77263;BME280;66373;52.334;4.806;2023-04-07T12:28:24;101765.59;;;16.88;48.95
77263;BME280;66373;52.334;4.806;2023-04-07T12:30:51;101768.19;;;16.88;49.05
77263;BME280;66373;52.334;4.806;2023-04-07T12:33:19;101764.72;;;16.83;49.01
77263;BME280;66373;52.334;4.806;2023-04-07T12:35:46;101787.22;;;16.96;49.04
77263;BME280;66373;52.334;4.806;2023-04-07T12:38:14;101756.94;;;16.80;49.10
77263;BME280;66373;52.334;4.806;2023-04-07T12:40:41;101790.69;;;16.98;49.02
77263;BME280;66373;52.334;4.806;2023-04-07T12:43:10;101737.00;;;16.67;49.03
77263;BME280;66373;52.334;4.806;2023-04-07T12:45:38;101772.53;;;16.78;49.06
77263;BME280;66373;52.334;4.806;2023-04-07T12:48:05;101761.25;;;16.82;49.03
77263;BME280;66373;52.334;4.806;2023-04-07T12:50:34;101788.94;;;16.94;48.89
77263;BME280;66373;52.334;4.806;2023-04-07T12:53:02;101785.47;;;16.92;48.95
77263;BME280;66373;52.334;4.806;2023-04-07T12:55:30;101771.63;;;16.90;49.02
77263;BME280;66373;52.334;4.806;2023-04-07T12:57:58;101794.16;;;16.97;48.83
77263;BME280;66373;52.334;4.806;2023-04-07T13:00:27;101799.34;;;17.00;48.96
77263;BME280;66373;52.334;4.806;2023-04-07T13:02:55;101806.28;;;16.95;48.97
77263;BME280;66373;52.334;4.806;2023-04-07T13:05:23;101804.53;;;17.00;49.17